createdAt,value
2023-04-16T00:01:02.970Z,56.89
2023-04-16T00:03:31.158Z,56.70
2023-04-16T00:05:59.388Z,56.76
2023-04-16T00:08:27.615Z,56.92
2023-04-16T00:10:57.291Z,56.86
2023-04-16T00:13:26.234Z,57.33
2023-04-16T00:15:54.292Z,57.46
2023-04-16T00:18:22.387Z,57.51
2023-04-16T00:20:50.793Z,57.56
2023-04-16T00:23:19.069Z,57.83
2023-04-16T00:25:47.181Z,57.49
2023-04-16T00:28:16.610Z,57.74
2023-04-16T00:30:44.774Z,57.94
2023-04-16T00:33:12.930Z,57.98
2023-04-16T00:35:41.190Z,57.97
2023-04-16T00:38:09.402Z,57.67
2023-04-16T00:40:37.523Z,57.55
2023-04-16T00:43:06.698Z,57.40
2023-04-16T00:45:36.391Z,57.34
2023-04-16T00:48:05.068Z,57.18
2023-04-16T00:50:33.100Z,57.30
2023-04-16T00:53:01.754Z,56.98
2023-04-16T00:55:30.058Z,56.73
2023-04-16T00:57:58.175Z,56.78
2023-04-16T01:00:27.008Z,56.84
2023-04-16T01:02:57.161Z,56.50
2023-04-16T01:05:25.386Z,56.74
2023-04-16T01:07:53.520Z,56.31
2023-04-16T01:10:21.725Z,56.71
2023-04-16T01:12:49.767Z,56.40
2023-04-16T01:15:17.957Z,56.61
2023-04-16T01:17:47.390Z,56.74
2023-04-16T01:20:17.004Z,57.03
2023-04-16T01:22:46.416Z,56.54
2023-04-16T01:25:16.836Z,56.98
2023-04-16T01:27:44.892Z,57.15
2023-04-16T01:30:13.295Z,56.81
2023-04-16T01:32:41.382Z,56.50
2023-04-16T01:35:09.520Z,57.17
2023-04-16T01:37:37.548Z,56.86
2023-04-16T01:40:08.107Z,57.10
2023-04-16T01:42:36.197Z,57.14
2023-04-16T01:45:04.468Z,57.29
2023-04-16T01:47:32.665Z,57.55
2023-04-16T01:50:01.154Z,57.37
2023-04-16T01:52:29.239Z,57.38
2023-04-16T01:54:57.343Z,57.10
2023-04-16T01:57:26.784Z,57.34
2023-04-16T01:59:54.856Z,57.15
2023-04-16T02:02:28.189Z,57.14
2023-04-16T02:04:57.527Z,56.92
2023-04-16T02:07:27.428Z,57.09
2023-04-16T02:09:55.854Z,56.83
2023-04-16T02:12:23.877Z,57.18
2023-04-16T02:14:53.531Z,57.15
2023-04-16T02:17:21.838Z,57.54
2023-04-16T02:19:49.828Z,57.12
2023-04-16T02:22:17.902Z,56.97
2023-04-16T02:24:45.999Z,57.22
2023-04-16T02:27:14.012Z,57.04
2023-04-16T02:29:42.329Z,56.82
2023-04-16T02:32:11.936Z,57.03
2023-04-16T02:34:40.504Z,56.97
2023-04-16T02:37:08.524Z,56.88
2023-04-16T02:39:36.642Z,56.97
2023-04-16T02:42:04.906Z,56.63
2023-04-16T02:44:32.899Z,56.91
2023-04-16T02:47:00.860Z,57.21
2023-04-16T02:49:30.335Z,57.12
2023-04-16T02:51:58.354Z,57.28
2023-04-16T02:54:26.454Z,57.14
2023-04-16T02:56:54.487Z,57.08
2023-04-16T02:59:22.567Z,56.82
2023-04-16T03:01:50.708Z,56.81
2023-04-16T03:04:18.887Z,57.35
2023-04-16T03:06:48.290Z,57.00
2023-04-16T03:09:16.308Z,57.10
2023-04-16T03:11:44.373Z,57.25
2023-04-16T03:14:12.534Z,57.27
2023-04-16T03:16:40.625Z,57.21
2023-04-16T03:19:08.830Z,57.07
2023-04-16T03:21:37.161Z,57.02
2023-04-16T03:24:06.683Z,57.27
2023-04-16T03:26:34.674Z,57.46
2023-04-16T03:29:03.327Z,56.97
2023-04-16T03:31:31.713Z,56.87
2023-04-16T03:33:59.856Z,57.03
2023-04-16T03:36:28.247Z,56.96
2023-04-16T03:38:56.246Z,56.77
2023-04-16T03:41:25.766Z,56.76
2023-04-16T03:43:53.815Z,56.63
2023-04-16T03:46:21.962Z,56.37
2023-04-16T03:48:49.988Z,56.59
2023-04-16T03:51:17.938Z,56.56
2023-04-16T03:53:46.028Z,56.55
2023-04-16T03:56:14.006Z,56.60
2023-04-16T03:58:43.497Z,56.16
2023-04-16T04:01:11.505Z,56.17
2023-04-16T04:03:39.680Z,56.30
2023-04-16T04:06:08.821Z,56.70
2023-04-16T04:08:36.955Z,56.80
2023-04-16T04:11:05.139Z,57.02
2023-04-16T04:13:33.241Z,56.84
2023-04-16T04:16:02.774Z,57.01
2023-04-16T04:18:30.815Z,56.89
2023-04-16T04:20:58.898Z,56.75
2023-04-16T04:23:26.927Z,56.87
2023-04-16T04:25:54.987Z,56.97
2023-04-16T04:28:23.118Z,57.16
2023-04-16T04:30:51.188Z,56.83
2023-04-16T04:33:20.657Z,56.77
2023-04-16T04:35:48.735Z,56.74
2023-04-16T04:38:19.976Z,56.61
2023-04-16T04:40:48.076Z,56.79
2023-04-16T04:43:16.209Z,56.45
2023-04-16T04:45:44.389Z,56.38
2023-04-16T04:48:12.466Z,56.27
2023-04-16T04:50:42.187Z,56.32
2023-04-16T04:53:11.201Z,55.96
2023-04-16T04:55:39.573Z,55.84
2023-04-16T04:58:08.691Z,55.35
2023-04-16T05:00:37.749Z,55.40
2023-04-16T05:03:08.253Z,54.48
2023-04-16T05:05:36.427Z,54.56
2023-04-16T05:08:06.628Z,54.27
2023-04-16T05:10:34.725Z,54.31
2023-04-16T05:13:02.722Z,53.84
2023-04-16T05:15:30.786Z,53.78
2023-04-16T05:17:58.807Z,54.19
2023-04-16T05:20:26.923Z,54.62
2023-04-16T05:22:55.537Z,54.72
2023-04-16T05:25:25.126Z,54.76
2023-04-16T05:27:53.193Z,54.99
2023-04-16T05:30:21.330Z,55.09
2023-04-16T05:32:49.395Z,55.71
2023-04-16T05:35:17.834Z,55.66
2023-04-16T05:37:45.910Z,55.53
2023-04-16T05:40:15.322Z,55.28
2023-04-16T05:42:44.698Z,55.17
2023-04-16T05:45:13.197Z,55.30
2023-04-16T05:47:41.292Z,54.94
2023-04-16T05:50:09.811Z,55.12
2023-04-16T05:52:37.911Z,55.04
2023-04-16T05:55:07.269Z,55.00
2023-04-16T05:57:35.449Z,54.75
2023-04-16T06:00:05.496Z,54.45
2023-04-16T06:02:33.870Z,54.10
2023-04-16T06:05:02.185Z,53.71
2023-04-16T06:07:30.601Z,53.69
2023-04-16T06:09:58.652Z,53.84
2023-04-16T06:12:27.261Z,53.79
2023-04-16T06:14:55.332Z,53.89
2023-04-16T06:17:24.955Z,53.78
2023-04-16T06:19:53.009Z,53.49
2023-04-16T06:22:21.194Z,53.71
2023-04-16T06:24:49.358Z,53.41
2023-04-16T06:27:17.653Z,53.00
2023-04-16T06:29:45.742Z,53.13
2023-04-16T06:32:13.862Z,52.61
2023-04-16T06:34:43.319Z,52.10
2023-04-16T06:37:11.450Z,52.43
2023-04-16T06:39:39.439Z,51.73
2023-04-16T06:42:07.489Z,51.96
2023-04-16T06:44:36.522Z,51.49
2023-04-16T06:47:04.721Z,51.26
2023-04-16T06:49:32.817Z,50.31
2023-04-16T06:52:04.505Z,49.93
2023-04-16T06:54:33.906Z,49.62
2023-04-16T06:57:02.071Z,49.46
2023-04-16T06:59:30.201Z,49.30
2023-04-16T07:01:58.367Z,49.32
2023-04-16T07:04:26.611Z,48.73
2023-04-16T07:06:54.625Z,47.68
2023-04-16T07:09:24.074Z,47.81
2023-04-16T07:11:52.182Z,48.93
2023-04-16T07:14:20.265Z,48.94
2023-04-16T07:16:48.298Z,48.46
2023-04-16T07:19:16.411Z,48.25
2023-04-16T07:21:44.637Z,46.79
2023-04-16T07:24:12.710Z,46.41
2023-04-16T07:26:42.267Z,46.38
2023-04-16T07:29:10.492Z,46.31
2023-04-16T07:31:38.788Z,45.64
2023-04-16T07:34:06.910Z,45.91
2023-04-16T07:36:34.923Z,45.20
2023-04-16T07:39:03.136Z,45.01
2023-04-16T07:41:31.233Z,44.69
2023-04-16T07:44:01.238Z,45.23
2023-04-16T07:46:39.380Z,45.15
2023-04-16T07:49:14.142Z,45.40
2023-04-16T07:51:42.259Z,45.47
2023-04-16T07:54:10.357Z,45.67
2023-04-16T07:56:38.462Z,46.55
2023-04-16T07:59:19.205Z,45.16
2023-04-16T08:01:51.013Z,45.92
2023-04-16T08:04:24.769Z,45.71
2023-04-16T08:06:53.686Z,46.59
2023-04-16T08:09:22.320Z,46.43
2023-04-16T08:11:50.962Z,47.00
2023-04-16T08:14:20.548Z,47.09
2023-04-16T08:16:48.662Z,46.74
2023-04-16T08:19:16.776Z,45.97
2023-04-16T08:21:45.025Z,45.80
2023-04-16T08:24:13.106Z,44.83
2023-04-16T08:26:41.334Z,44.82
2023-04-16T08:29:09.756Z,44.58
2023-04-16T08:31:39.574Z,44.54
2023-04-16T08:34:07.840Z,44.73
2023-04-16T08:36:35.825Z,44.32
2023-04-16T08:39:03.983Z,44.56
2023-04-16T08:41:33.583Z,44.72
2023-04-16T08:44:08.846Z,44.26
2023-04-16T08:46:41.891Z,45.06
2023-04-16T08:49:10.697Z,45.17
2023-04-16T08:51:43.581Z,46.07
2023-04-16T08:54:16.251Z,45.01
2023-04-16T08:56:44.917Z,44.86
2023-04-16T08:59:13.208Z,45.52
2023-04-16T09:01:43.491Z,44.54
2023-04-16T09:04:12.104Z,44.87
2023-04-16T09:06:42.021Z,44.33
2023-04-16T09:09:11.751Z,44.59
2023-04-16T09:11:40.551Z,43.25
2023-04-16T09:14:11.346Z,41.84
2023-04-16T09:16:41.078Z,40.99
2023-04-16T09:19:11.278Z,40.48
2023-04-16T09:21:41.042Z,40.23
2023-04-16T09:24:10.245Z,40.16
2023-04-16T09:26:38.698Z,39.63
2023-04-16T09:29:06.868Z,40.34
2023-04-16T09:31:35.083Z,39.89
2023-04-16T09:34:05.515Z,40.19
2023-04-16T09:36:35.881Z,40.48
2023-04-16T09:39:04.965Z,40.80
2023-04-16T09:41:36.069Z,40.77
2023-04-16T09:44:06.084Z,41.42
2023-04-16T09:46:36.492Z,41.39
2023-04-16T09:49:10.077Z,41.85
2023-04-16T09:51:42.088Z,41.50
2023-04-16T09:54:11.791Z,41.80
2023-04-16T09:56:42.698Z,41.91
2023-04-16T09:59:17.861Z,41.42
2023-04-16T10:01:47.223Z,41.60
2023-04-16T10:04:15.689Z,41.76
2023-04-16T10:06:48.568Z,41.67
2023-04-16T10:09:16.663Z,41.55
2023-04-16T10:11:44.776Z,41.68
2023-04-16T10:14:13.032Z,41.56
2023-04-16T10:16:41.824Z,41.76
2023-04-16T10:19:10.423Z,41.93
2023-04-16T10:21:38.930Z,42.15
2023-04-16T10:24:09.838Z,41.85
2023-04-16T10:26:38.478Z,41.80
2023-04-16T10:29:08.940Z,41.68
2023-04-16T10:31:39.924Z,41.56
2023-04-16T10:34:10.639Z,41.56
2023-04-16T10:36:40.065Z,41.31
2023-04-16T10:39:17.361Z,41.61
2023-04-16T10:41:46.896Z,41.12
2023-04-16T10:44:21.190Z,41.17
2023-04-16T10:47:12.822Z,41.35
2023-04-16T10:49:42.669Z,41.63
2023-04-16T10:52:13.874Z,41.50
2023-04-16T10:54:44.194Z,41.11
2023-04-16T10:57:18.022Z,41.10
2023-04-16T10:59:47.604Z,40.92
2023-04-16T11:02:18.519Z,40.40
2023-04-16T11:04:48.062Z,40.31
2023-04-16T11:07:19.504Z,40.14
2023-04-16T11:09:54.598Z,40.09
2023-04-16T11:12:24.179Z,39.45
2023-04-16T11:14:53.754Z,39.16
2023-04-16T11:17:24.355Z,39.24
2023-04-16T11:19:55.737Z,39.10
2023-04-16T11:22:29.864Z,38.36
2023-04-16T11:25:06.892Z,38.44
2023-04-16T11:27:40.734Z,38.62
2023-04-16T11:30:15.555Z,38.71
2023-04-16T11:32:49.193Z,38.24
2023-04-16T11:35:23.405Z,37.84
2023-04-16T11:38:03.149Z,37.27
2023-04-16T11:40:38.963Z,37.12
2023-04-16T11:43:15.838Z,37.55
2023-04-16T11:45:58.784Z,37.20
2023-04-16T11:48:27.452Z,36.82
2023-04-16T11:50:59.147Z,37.30
2023-04-16T11:53:27.363Z,36.78
2023-04-16T11:55:57.328Z,36.82
2023-04-16T11:58:25.448Z,36.68
2023-04-16T12:00:56.940Z,36.65
2023-04-16T12:03:39.765Z,36.81
2023-04-16T12:06:11.926Z,37.03
2023-04-16T12:08:40.048Z,37.14
2023-04-16T12:11:09.827Z,36.67
2023-04-16T12:13:40.316Z,36.38
2023-04-16T12:16:21.872Z,36.60
2023-04-16T12:19:04.031Z,36.32
2023-04-16T12:21:39.842Z,36.09
2023-04-16T12:24:09.452Z,36.70
2023-04-16T12:26:43.308Z,36.42
2023-04-16T12:31:48.290Z,36.35
2023-04-16T12:34:17.499Z,36.87
2023-04-16T12:36:46.767Z,36.93
2023-04-16T12:39:17.233Z,36.92
2023-04-16T12:41:47.978Z,36.67
2023-04-16T12:44:18.571Z,36.74
2023-04-16T12:46:46.938Z,36.32
2023-04-16T12:49:15.141Z,36.68
2023-04-16T12:51:43.716Z,36.85
2023-04-16T12:54:12.095Z,36.99
2023-04-16T12:56:40.238Z,36.47
2023-04-16T12:59:10.644Z,36.54
2023-04-16T13:01:39.058Z,37.06
2023-04-16T13:04:07.764Z,37.45
2023-04-16T13:06:37.767Z,37.18
2023-04-16T13:09:06.033Z,37.47
2023-04-16T13:11:34.321Z,37.66
2023-04-16T13:14:02.516Z,37.75
2023-04-16T13:16:32.384Z,37.74
2023-04-16T13:19:00.433Z,38.01
2023-04-16T13:21:28.674Z,37.97
2023-04-16T13:23:56.784Z,38.03
2023-04-16T13:26:24.830Z,37.45
2023-04-16T13:28:53.082Z,37.20
2023-04-16T13:31:22.234Z,38.05
2023-04-16T13:33:52.837Z,37.54
2023-04-16T13:36:20.873Z,37.56
2023-04-16T13:38:49.040Z,37.02
2023-04-16T13:41:17.045Z,37.58
2023-04-16T13:43:45.143Z,36.94
2023-04-16T13:46:13.504Z,36.97
2023-04-16T13:48:41.736Z,36.75
2023-04-16T13:51:11.214Z,36.91
2023-04-16T13:53:39.227Z,36.97
2023-04-16T13:56:07.422Z,37.04
2023-04-16T13:58:35.627Z,37.21
2023-04-16T14:01:03.855Z,36.86
2023-04-16T14:03:35.962Z,36.73
2023-04-16T14:06:04.191Z,37.14
2023-04-16T14:08:33.787Z,36.83
2023-04-16T14:11:02.561Z,37.11
2023-04-16T14:13:30.685Z,37.09
2023-04-16T14:15:58.826Z,37.24
2023-04-16T14:18:26.926Z,36.82
2023-04-16T14:20:55.058Z,36.97
2023-04-16T14:23:23.155Z,36.51
2023-04-16T14:25:53.087Z,36.30
2023-04-16T14:28:21.687Z,37.07
2023-04-16T14:30:49.841Z,37.32
2023-04-16T14:33:17.996Z,37.33
2023-04-16T14:35:46.200Z,37.43
2023-04-16T14:38:14.368Z,36.73
2023-04-16T14:40:42.589Z,37.68
2023-04-16T14:43:12.099Z,37.46
2023-04-16T14:45:40.628Z,37.88
2023-04-16T14:48:09.116Z,37.69
2023-04-16T14:50:38.446Z,37.91
2023-04-16T14:53:06.942Z,37.54
2023-04-16T14:55:35.634Z,37.76
2023-04-16T14:58:04.368Z,37.30
2023-04-16T15:00:35.837Z,37.66
2023-04-16T15:03:04.907Z,37.59
2023-04-16T15:05:33.288Z,37.73
2023-04-16T15:08:01.735Z,37.48
2023-04-16T15:10:29.811Z,38.21
2023-04-16T15:12:57.966Z,38.06
2023-04-16T15:15:26.117Z,38.23
2023-04-16T15:17:57.175Z,38.57
2023-04-16T15:20:25.377Z,39.13
2023-04-16T15:22:54.719Z,39.36
2023-04-16T15:25:23.574Z,39.15
2023-04-16T15:27:51.622Z,39.00
2023-04-16T15:30:20.272Z,39.34
2023-04-16T15:32:48.726Z,39.56
2023-04-16T15:35:18.348Z,39.92
2023-04-16T15:37:46.520Z,39.49
2023-04-16T15:40:16.059Z,40.15
2023-04-16T15:42:44.671Z,40.10
2023-04-16T15:45:12.803Z,40.15
2023-04-16T15:47:41.992Z,40.45
2023-04-16T15:50:10.359Z,40.19
2023-04-16T15:52:40.333Z,40.26
2023-04-16T15:55:08.816Z,40.29
2023-04-16T15:57:37.231Z,40.23
2023-04-16T16:00:13.500Z,40.89
2023-04-16T16:02:42.085Z,40.61
2023-04-16T16:05:11.980Z,40.79
2023-04-16T16:07:42.042Z,41.16
2023-04-16T16:10:11.303Z,41.08
2023-04-16T16:12:39.486Z,41.19
2023-04-16T16:15:09.253Z,41.87
2023-04-16T16:17:37.592Z,41.66
2023-04-16T16:20:09.600Z,41.83
2023-04-16T16:22:38.214Z,42.30
2023-04-16T16:25:10.154Z,42.18
2023-04-16T16:27:38.311Z,42.36
2023-04-16T16:30:07.746Z,42.60
2023-04-16T16:32:36.162Z,42.97
2023-04-16T16:35:04.451Z,43.10
2023-04-16T16:37:33.137Z,42.72
2023-04-16T16:40:01.312Z,43.40
2023-04-16T16:42:30.764Z,43.52
2023-04-16T16:44:58.829Z,43.47
2023-04-16T16:47:27.078Z,43.97
2023-04-16T16:49:55.237Z,44.01
2023-04-16T16:52:24.510Z,43.84
2023-04-16T16:54:53.900Z,44.01
2023-04-16T16:57:21.984Z,43.66
2023-04-16T16:59:51.758Z,43.44
2023-04-16T17:02:19.980Z,44.03
2023-04-16T17:04:48.114Z,43.96
2023-04-16T17:07:16.178Z,44.25
2023-04-16T17:09:44.384Z,44.36
2023-04-16T17:12:12.450Z,44.86
2023-04-16T17:14:40.787Z,44.93
2023-04-16T17:17:10.277Z,45.00
2023-04-16T17:19:38.367Z,44.32
2023-04-16T17:22:06.514Z,44.28
2023-04-16T17:24:34.644Z,45.23
2023-04-16T17:27:03.393Z,45.13
2023-04-16T17:29:31.555Z,45.42
2023-04-16T17:31:59.819Z,45.62
2023-04-16T17:34:29.476Z,45.96
2023-04-16T17:36:57.627Z,45.45
2023-04-16T17:39:25.770Z,45.34
2023-04-16T17:41:57.364Z,45.50
2023-04-16T17:44:25.894Z,46.03
2023-04-16T17:46:53.907Z,46.29
2023-04-16T17:49:22.018Z,45.99
2023-04-16T17:51:51.486Z,46.48
2023-04-16T17:54:19.551Z,46.80
2023-04-16T17:56:47.708Z,47.00
2023-04-16T17:59:15.779Z,47.27
2023-04-16T18:01:44.590Z,46.69
2023-04-16T18:04:13.333Z,46.61
2023-04-16T18:06:41.737Z,47.00
2023-04-16T18:09:12.190Z,47.37
2023-04-16T18:11:40.426Z,47.34
2023-04-16T18:14:10.138Z,48.06
2023-04-16T18:16:38.457Z,47.75
2023-04-16T18:19:06.660Z,47.33
2023-04-16T18:21:35.568Z,48.21
2023-04-16T18:24:03.676Z,47.57
2023-04-16T18:26:35.698Z,48.15
2023-04-16T18:29:04.257Z,47.78
2023-04-16T18:31:32.411Z,47.82
2023-04-16T18:34:00.598Z,47.88
2023-04-16T18:36:28.769Z,48.32
2023-04-16T18:39:01.558Z,48.19
2023-04-16T18:41:32.217Z,48.51
2023-04-16T18:44:00.506Z,48.60
2023-04-16T18:46:28.602Z,48.58
2023-04-16T18:48:56.699Z,48.41
2023-04-16T18:51:25.101Z,48.18
2023-04-16T18:53:53.162Z,48.69
2023-04-16T18:56:21.793Z,48.73
2023-04-16T18:58:51.260Z,48.30
2023-04-16T19:01:19.324Z,48.87
2023-04-16T19:03:47.604Z,49.04
2023-04-16T19:06:15.872Z,48.71
2023-04-16T19:08:44.059Z,48.60
2023-04-16T19:11:12.092Z,48.95
2023-04-16T19:13:40.168Z,48.50
2023-04-16T19:16:11.717Z,49.25
2023-04-16T19:18:40.110Z,49.29
2023-04-16T19:21:10.163Z,48.38
2023-04-16T19:23:38.222Z,49.01
2023-04-16T19:26:06.393Z,49.10
2023-04-16T19:28:34.550Z,49.84
2023-04-16T19:31:02.639Z,49.33
2023-04-16T19:33:32.512Z,49.10
2023-04-16T19:36:01.875Z,49.09
2023-04-16T19:38:31.977Z,48.67
2023-04-16T19:41:00.175Z,49.04
2023-04-16T19:43:30.773Z,49.18
2023-04-16T19:45:59.376Z,49.21
2023-04-16T19:48:27.660Z,49.99
2023-04-16T19:50:57.256Z,49.16
2023-04-16T19:53:25.783Z,50.30
2023-04-16T19:55:53.899Z,49.75
2023-04-16T19:58:22.069Z,49.66
2023-04-16T20:00:50.339Z,50.89
2023-04-16T20:03:18.525Z,50.16
2023-04-16T20:05:49.514Z,50.23
2023-04-16T20:08:19.139Z,50.19
2023-04-16T20:10:47.445Z,50.81
2023-04-16T20:13:18.599Z,50.44
2023-04-16T20:15:47.290Z,50.50
2023-04-16T20:18:15.646Z,50.89
2023-04-16T20:20:43.717Z,50.72
2023-04-16T20:23:11.859Z,50.90
2023-04-16T20:25:43.697Z,51.04
2023-04-16T20:28:11.827Z,50.48
2023-04-16T20:30:40.073Z,51.29
2023-04-16T20:33:11.522Z,50.96
2023-04-16T20:35:40.626Z,51.44
2023-04-16T20:38:19.919Z,51.13
2023-04-16T20:40:49.654Z,51.22
2023-04-16T20:43:18.930Z,51.51
2023-04-16T20:45:50.251Z,51.06
2023-04-16T20:48:18.538Z,50.97
2023-04-16T20:50:46.977Z,51.15
2023-04-16T20:53:15.975Z,51.33
2023-04-16T20:55:44.615Z,51.77
2023-04-16T20:58:14.826Z,51.95
2023-04-16T21:00:42.926Z,51.70
2023-04-16T21:03:11.187Z,51.62
2023-04-16T21:05:39.470Z,51.53
2023-04-16T21:08:07.930Z,52.02
2023-04-16T21:10:36.110Z,51.71
2023-04-16T21:13:04.175Z,51.62
2023-04-16T21:15:34.837Z,52.31
2023-04-16T21:18:02.946Z,52.07
2023-04-16T21:20:31.081Z,52.59
2023-04-16T21:22:59.214Z,52.14
2023-04-16T21:25:27.288Z,52.22
2023-04-16T21:27:55.579Z,52.33
2023-04-16T21:30:23.986Z,52.53
2023-04-16T21:32:53.549Z,52.61
2023-04-16T21:35:21.628Z,51.89
2023-04-16T21:37:49.701Z,52.52
2023-04-16T21:40:17.857Z,52.60
2023-04-16T21:42:45.933Z,52.53
2023-04-16T21:45:14.574Z,52.94
2023-04-16T21:47:42.766Z,53.46
2023-04-16T21:50:13.475Z,53.34
2023-04-16T21:52:46.796Z,53.92
2023-04-16T21:55:15.243Z,53.91
2023-04-16T21:57:43.388Z,53.37
2023-04-16T22:00:14.278Z,53.97
2023-04-16T22:02:43.336Z,53.45
2023-04-16T22:05:13.079Z,53.96
2023-04-16T22:07:41.401Z,53.83
